createdAt,value
2023-04-01T00:00:58.899Z,925.71
2023-04-01T00:01:59.608Z,925.74
2023-04-01T00:03:00.402Z,925.68
2023-04-01T00:04:00.676Z,925.73
2023-04-01T00:05:01.712Z,925.72
2023-04-01T00:06:02.614Z,925.75
2023-04-01T00:07:03.319Z,925.64
2023-04-01T00:08:04.033Z,925.66
2023-04-01T00:09:04.927Z,925.65
2023-04-01T00:10:05.369Z,925.55
2023-04-01T00:11:06.310Z,925.52
2023-04-01T00:12:07.182Z,925.55
2023-04-01T00:13:07.832Z,925.55
2023-04-01T00:14:08.517Z,925.49
2023-04-01T00:15:09.007Z,925.47
2023-04-01T00:16:20.851Z,925.46
2023-04-01T00:17:10.634Z,925.46
2023-04-01T00:18:11.336Z,925.42
2023-04-01T00:19:11.788Z,925.43
2023-04-01T00:20:12.733Z,925.45
2023-04-01T00:21:13.641Z,925.43
2023-04-01T00:22:14.013Z,925.42
2023-04-01T00:23:14.328Z,925.45
2023-04-01T00:24:15.284Z,925.44
2023-04-01T00:25:15.609Z,925.49
2023-04-01T00:26:15.961Z,925.41
2023-04-01T00:27:16.483Z,925.39
2023-04-01T00:28:17.180Z,925.45
2023-04-01T00:29:17.577Z,925.39
2023-04-01T00:30:17.694Z,925.35
2023-04-01T00:31:18.623Z,925.44
2023-04-01T00:32:19.119Z,925.3
2023-04-01T00:33:19.325Z,925.35
2023-04-01T00:34:20.235Z,925.24
2023-04-01T00:35:20.944Z,925.29
2023-04-01T00:36:21.484Z,925.35
2023-04-01T00:37:21.998Z,925.27
2023-04-01T00:38:22.752Z,925.29
2023-04-01T00:39:23.641Z,925.4
2023-04-01T00:40:24.329Z,925.36
2023-04-01T00:41:24.635Z,925.42
2023-04-01T00:42:25.312Z,925.41
2023-04-01T00:43:25.882Z,925.44
2023-04-01T00:44:26.831Z,925.35
2023-04-01T00:45:27.551Z,925.38
2023-04-01T00:46:27.927Z,925.35
2023-04-01T00:47:28.672Z,925.4
2023-04-01T00:48:29.206Z,925.42
2023-04-01T00:49:29.670Z,925.37
2023-04-01T00:50:30.190Z,925.36
2023-04-01T00:51:30.693Z,925.27
2023-04-01T00:52:31.193Z,925.33
2023-04-01T00:53:31.904Z,925.33
2023-04-01T00:54:32.848Z,925.34
2023-04-01T00:55:33.495Z,925.39
2023-04-01T00:56:33.366Z,925.18
2023-04-01T00:57:34.172Z,925.21
2023-04-01T00:58:34.909Z,925.25
2023-04-01T00:59:35.311Z,925.25
2023-04-01T01:00:36.423Z,925.23
2023-04-01T01:01:36.599Z,925.26
2023-04-01T01:02:37.674Z,925.19
2023-04-01T01:03:37.857Z,925.15
2023-04-01T01:04:38.375Z,925.15
2023-04-01T01:05:48.310Z,925.16
2023-04-01T01:06:39.625Z,925.18
2023-04-01T01:07:40.058Z,925.24
2023-04-01T01:08:40.386Z,925.2
2023-04-01T01:09:41.249Z,925.11
2023-04-01T01:10:41.563Z,925.19
2023-04-01T01:11:43.360Z,925.17
2023-04-01T01:12:42.696Z,925.19
2023-04-01T01:13:43.405Z,925.19
2023-04-01T01:14:43.891Z,925.2
2023-04-01T01:15:44.366Z,925.19
2023-04-01T01:16:44.917Z,925.23
2023-04-01T01:17:46.033Z,925.24
2023-04-01T01:18:47.053Z,925.14
2023-04-01T01:19:47.486Z,925.24
2023-04-01T01:20:48.311Z,925.3
2023-04-01T01:21:48.424Z,925.32
2023-04-01T01:22:49.135Z,925.28
2023-04-01T01:23:50.061Z,925.28
2023-04-01T01:24:50.236Z,925.18
2023-04-01T01:25:51.165Z,925.14
2023-04-01T01:26:52.067Z,925.21
2023-04-01T01:27:52.989Z,925.23
2023-04-01T01:28:53.674Z,925.1
2023-04-01T01:29:54.074Z,925.16
2023-04-01T01:30:54.864Z,925.05
2023-04-01T01:31:55.348Z,925.07
2023-04-01T01:32:56.122Z,925.11
2023-04-01T01:33:56.436Z,925.13
2023-04-01T01:34:57.208Z,925.11
2023-04-01T01:35:57.341Z,925.09
2023-04-01T01:36:57.476Z,925.01
2023-04-01T01:37:58.210Z,925.14
2023-04-01T01:38:58.563Z,925
2023-04-01T01:39:59.472Z,925
2023-04-01T01:40:59.802Z,925.1
2023-04-01T01:42:00.500Z,925.07
2023-04-01T01:43:01.057Z,925.16
2023-04-01T01:44:02.028Z,925.21
2023-04-01T01:45:03.047Z,925.18
2023-04-01T01:46:03.607Z,925.19
2023-04-01T01:47:04.536Z,925.13
2023-04-01T01:48:05.275Z,925.12
2023-04-01T01:49:05.409Z,925.09
2023-04-01T01:50:06.241Z,925.13
2023-04-01T01:51:07.218Z,925.12
2023-04-01T01:52:08.124Z,925.15
2023-04-01T01:53:08.906Z,925.22
2023-04-01T01:54:09.634Z,925.18
2023-04-01T01:55:09.805Z,925.14
2023-04-01T01:56:09.917Z,925.17
2023-04-01T01:57:10.510Z,925.19
2023-04-01T01:58:11.246Z,925.12
2023-04-01T01:59:12.162Z,925.13
2023-04-01T02:00:12.797Z,925.15
2023-04-01T02:01:12.950Z,925.2
2023-04-01T02:02:13.057Z,925.17
2023-04-01T02:03:13.810Z,925.2
2023-04-01T02:04:14.556Z,925.23
2023-04-01T02:05:15.550Z,925.22
2023-04-01T02:06:15.920Z,925.21
2023-04-01T02:07:16.437Z,925.2
2023-04-01T02:08:17.343Z,925.25
2023-04-01T02:09:17.899Z,925.24
2023-04-01T02:10:18.775Z,925.24
2023-04-01T02:11:19.256Z,925.25
2023-04-01T02:12:19.747Z,925.22
2023-04-01T02:13:20.646Z,925.24
2023-04-01T02:14:21.140Z,925.29
2023-04-01T02:15:22.062Z,925.31
2023-04-01T02:16:23.165Z,925.3
2023-04-01T02:17:23.233Z,925.34
2023-04-01T02:18:24.070Z,925.39
2023-04-01T02:19:24.560Z,925.37
2023-04-01T02:20:25.374Z,925.48
2023-04-01T02:21:26.316Z,925.49
2023-04-01T02:22:27.053Z,925.59
2023-04-01T02:23:27.365Z,925.54
2023-04-01T02:24:28.114Z,925.6
2023-04-01T02:25:28.859Z,925.57
2023-04-01T02:26:29.400Z,925.62
2023-04-01T02:27:29.794Z,925.69
2023-04-01T02:28:30.493Z,925.72
2023-04-01T02:29:31.398Z,925.63
2023-04-01T02:30:32.012Z,925.77
2023-04-01T02:31:32.945Z,925.73
2023-04-01T02:32:33.835Z,925.72
2023-04-01T02:33:34.764Z,925.59
2023-04-01T02:34:35.447Z,925.61
2023-04-01T02:35:35.578Z,925.57
2023-04-01T02:36:36.512Z,925.65
2023-04-01T02:37:39.204Z,925.71
2023-04-01T02:38:37.946Z,925.62
2023-04-01T02:39:38.450Z,925.58
2023-04-01T02:40:39.273Z,925.65
2023-04-01T02:41:39.763Z,925.67
2023-04-01T02:42:40.457Z,925.65
2023-04-01T02:43:41.353Z,925.63
2023-04-01T02:44:42.217Z,925.59
2023-04-01T02:45:43.141Z,925.57
2023-04-01T02:46:43.686Z,925.57
2023-04-01T02:47:43.950Z,925.61
2023-04-01T02:48:44.915Z,925.6
2023-04-01T02:49:45.826Z,925.54
2023-04-01T02:50:46.333Z,925.56
2023-04-01T02:51:46.848Z,925.49
2023-04-01T02:52:47.373Z,925.49
2023-04-01T02:53:47.871Z,925.55
2023-04-01T02:54:48.452Z,925.51
2023-04-01T02:55:49.385Z,925.51
2023-04-01T02:56:49.919Z,925.49
2023-04-01T02:57:50.071Z,925.42
2023-04-01T02:58:50.764Z,925.47
2023-04-01T02:59:51.311Z,925.5
2023-04-01T03:00:51.590Z,925.48
2023-04-01T03:01:52.189Z,925.4
2023-04-01T03:02:53.009Z,925.44
2023-04-01T03:03:53.068Z,925.43
2023-04-01T03:04:53.762Z,925.41
2023-04-01T03:05:54.665Z,925.33
2023-04-01T03:06:55.611Z,925.38
2023-04-01T03:07:56.317Z,925.35
2023-04-01T03:08:57.042Z,925.37
2023-04-01T03:09:57.555Z,925.39
2023-04-01T03:11:00.240Z,925.35
2023-04-01T03:11:59.347Z,925.37
2023-04-01T03:12:59.901Z,925.38
2023-04-01T03:14:00.989Z,925.3
2023-04-01T03:15:10.369Z,925.34
2023-04-01T03:16:02.417Z,925.41
2023-04-01T03:17:02.674Z,925.34
2023-04-01T03:18:02.826Z,925.44
2023-04-01T03:19:03.269Z,925.51
2023-04-01T03:20:04.011Z,925.53
2023-04-01T03:21:04.796Z,925.52
2023-04-01T03:22:05.528Z,925.56
2023-04-01T03:23:06.418Z,925.53
2023-04-01T03:24:07.114Z,925.59
2023-04-01T03:25:07.491Z,925.63
2023-04-01T03:26:08.223Z,925.66
2023-04-01T03:27:09.154Z,925.63
2023-04-01T03:28:09.654Z,925.68
2023-04-01T03:29:09.854Z,925.73
2023-04-01T03:30:10.653Z,925.7
2023-04-01T03:31:11.583Z,925.66
2023-04-01T03:32:11.784Z,925.69
2023-04-01T03:33:12.565Z,925.71
2023-04-01T03:34:13.463Z,925.69
2023-04-01T03:35:14.163Z,925.71
2023-04-01T03:36:14.320Z,925.75
2023-04-01T03:37:14.503Z,925.75
2023-04-01T03:38:15.395Z,925.81
2023-04-01T03:39:15.883Z,925.78
2023-04-01T03:40:16.010Z,925.79
2023-04-01T03:41:16.686Z,925.81
2023-04-01T03:42:17.158Z,925.87
2023-04-01T03:43:18.177Z,925.81
2023-04-01T03:44:19.098Z,925.87
2023-04-01T03:45:19.498Z,925.85
2023-04-01T03:46:19.773Z,925.82
2023-04-01T03:47:20.095Z,925.78
2023-04-01T03:48:20.909Z,925.76
2023-04-01T03:49:21.883Z,925.76
2023-04-01T03:50:22.393Z,925.79
2023-04-01T03:51:22.726Z,925.81
2023-04-01T03:52:23.030Z,925.83
2023-04-01T03:53:23.757Z,925.82
2023-04-01T03:54:24.223Z,925.82
2023-04-01T03:55:24.968Z,925.87
2023-04-01T03:56:25.499Z,925.83
2023-04-01T03:57:25.826Z,925.82
2023-04-01T03:58:26.877Z,925.81
2023-04-01T03:59:27.217Z,925.69
2023-04-01T04:00:27.934Z,925.65
2023-04-01T04:01:28.142Z,925.68
2023-04-01T04:02:29.110Z,925.66
2023-04-01T04:03:30.157Z,925.66
2023-04-01T04:04:30.649Z,925.65
2023-04-01T04:05:31.773Z,925.65
2023-04-01T04:06:32.417Z,925.61
2023-04-01T04:07:33.125Z,925.62
2023-04-01T04:08:33.623Z,925.67
2023-04-01T04:09:34.111Z,925.66
2023-04-01T04:10:34.242Z,925.71
2023-04-01T04:11:35.273Z,925.7
2023-04-01T04:12:35.577Z,925.69
2023-04-01T04:13:36.273Z,925.66
2023-04-01T04:14:37.199Z,925.69
2023-04-01T04:15:38.107Z,925.61
2023-04-01T04:16:38.773Z,925.62
2023-04-01T04:17:39.524Z,925.61
2023-04-01T04:18:40.379Z,925.66
2023-04-01T04:19:41.160Z,925.52
2023-04-01T04:20:41.866Z,925.56
2023-04-01T04:21:42.230Z,925.55
2023-04-01T04:22:43.017Z,925.58
2023-04-01T04:23:43.840Z,925.59
2023-04-01T04:24:44.335Z,925.6
2023-04-01T04:25:45.301Z,925.64
2023-04-01T04:26:46.251Z,925.6
2023-04-01T04:27:47.089Z,925.61
2023-04-01T04:28:48.009Z,925.69
2023-04-01T04:29:49.071Z,925.77
2023-04-01T04:30:49.778Z,925.75
2023-04-01T04:31:50.505Z,925.75
2023-04-01T04:32:51.393Z,925.73
2023-04-01T04:33:51.485Z,925.77
2023-04-01T04:34:51.906Z,925.87
2023-04-01T04:35:52.420Z,925.85
2023-04-01T04:36:52.533Z,925.84
2023-04-01T04:37:53.025Z,925.78
2023-04-01T04:38:53.166Z,925.89
2023-04-01T04:39:53.866Z,925.88
2023-04-01T04:40:54.788Z,925.83
2023-04-01T04:41:55.494Z,925.79
2023-04-01T04:42:56.409Z,925.76
2023-04-01T04:43:56.898Z,925.96
2023-04-01T04:44:57.606Z,925.86
2023-04-01T04:45:58.171Z,925.83
2023-04-01T04:46:59.070Z,925.81
2023-04-01T04:47:59.669Z,925.96
2023-04-01T04:49:00.533Z,925.89
2023-04-01T04:50:01.254Z,925.82
2023-04-01T04:51:02.153Z,925.84
2023-04-01T04:52:02.959Z,925.79
2023-04-01T04:53:03.872Z,925.8
2023-04-01T04:54:04.742Z,925.84
2023-04-01T04:55:05.448Z,925.87
2023-04-01T04:56:05.929Z,925.9
2023-04-01T04:57:06.103Z,925.88
2023-04-01T04:58:06.212Z,925.91
2023-04-01T04:59:06.936Z,925.92
2023-04-01T05:00:07.844Z,925.92
2023-04-01T05:01:08.767Z,925.9
2023-04-01T05:02:09.723Z,925.9
2023-04-01T05:03:09.865Z,925.9
2023-04-01T05:04:10.606Z,925.86
2023-04-01T05:05:11.422Z,925.91
2023-04-01T05:06:12.106Z,925.91
2023-04-01T05:07:12.733Z,925.87
2023-04-01T05:08:12.871Z,925.87
2023-04-01T05:09:13.461Z,925.9
2023-04-01T05:10:13.756Z,925.89
2023-04-01T05:11:14.867Z,925.91
2023-04-01T05:12:15.771Z,925.95
2023-04-01T05:13:16.541Z,925.93
2023-04-01T05:14:17.431Z,925.87
2023-04-01T05:15:18.121Z,925.88
2023-04-01T05:16:18.262Z,925.9
2023-04-01T05:17:19.221Z,925.91
2023-04-01T05:18:20.026Z,925.91
2023-04-01T05:19:20.775Z,925.89
2023-04-01T05:20:21.475Z,925.93
2023-04-01T05:21:22.412Z,925.84
2023-04-01T05:22:22.650Z,925.93
2023-04-01T05:23:23.689Z,925.95
2023-04-01T05:24:24.190Z,925.94
2023-04-01T05:25:24.705Z,925.93
2023-04-01T05:26:24.908Z,925.92
2023-04-01T05:27:25.054Z,926
2023-04-01T05:28:25.769Z,926.05
2023-04-01T05:29:26.470Z,926.02
2023-04-01T05:30:27.195Z,925.98
2023-04-01T05:31:27.723Z,926.01
2023-04-01T05:32:28.435Z,926.03
2023-04-01T05:33:29.198Z,926.07
2023-04-01T05:34:30.286Z,925.99
2023-04-01T05:35:31.262Z,925.98
2023-04-01T05:36:31.691Z,926.01
2023-04-01T05:37:32.584Z,925.98
2023-04-01T05:38:33.148Z,925.97
2023-04-01T05:39:33.645Z,926.05
2023-04-01T05:40:34.358Z,926.06
2023-04-01T05:41:35.236Z,926.01
2023-04-01T05:42:38.086Z,925.99
2023-04-01T05:43:36.970Z,926.03
2023-04-01T05:44:37.331Z,926.03
2023-04-01T05:45:38.041Z,926.11
2023-04-01T05:46:38.561Z,926.05
2023-04-01T05:47:38.511Z,925.98
2023-04-01T05:48:38.917Z,926.02
2023-04-01T05:49:39.684Z,926.06
2023-04-01T05:50:40.569Z,926.03
2023-04-01T05:51:41.098Z,926.05
2023-04-01T05:52:41.940Z,925.98
2023-04-01T05:53:42.694Z,925.92
2023-04-01T05:54:43.223Z,926.02
2023-04-01T05:55:43.710Z,925.98
2023-04-01T05:56:45.007Z,925.98
2023-04-01T05:57:45.035Z,926.01
2023-04-01T05:58:45.872Z,925.93
2023-04-01T05:59:46.576Z,926.06
2023-04-01T06:00:47.968Z,926.05
2023-04-01T06:01:48.288Z,926
2023-04-01T06:02:48.954Z,925.97
2023-04-01T06:03:49.224Z,925.94
2023-04-01T06:04:49.680Z,925.86
2023-04-01T06:05:50.498Z,925.85
2023-04-01T06:06:50.991Z,925.89
2023-04-01T06:07:51.864Z,925.86
2023-04-01T06:08:52.609Z,925.82
2023-04-01T06:09:53.326Z,925.78
2023-04-01T06:10:53.862Z,925.83
2023-04-01T06:11:54.194Z,925.8
2023-04-01T06:12:54.280Z,925.85
2023-04-01T06:13:54.716Z,925.92
2023-04-01T06:14:55.221Z,925.85
2023-04-01T06:15:55.963Z,925.91
2023-04-01T06:16:56.591Z,925.94
2023-04-01T06:17:57.157Z,925.99
2023-04-01T06:18:57.557Z,926
2023-04-01T06:19:58.507Z,925.99
2023-04-01T06:20:58.888Z,925.95
2023-04-01T06:21:59.214Z,925.93
2023-04-01T06:22:59.704Z,925.95
2023-04-01T06:24:00.409Z,925.93
2023-04-01T06:25:01.355Z,925.95
2023-04-01T06:26:01.897Z,925.98
2023-04-01T06:27:02.442Z,925.92
2023-04-01T06:28:03.449Z,925.9
2023-04-01T06:29:03.673Z,925.97
2023-04-01T06:30:04.367Z,926.02
2023-04-01T06:31:05.158Z,925.99
2023-04-01T06:32:05.625Z,925.95
2023-04-01T06:33:06.135Z,926.04
2023-04-01T06:34:07.090Z,926.04
2023-04-01T06:35:07.193Z,926.14
2023-04-01T06:36:08.171Z,926.15
2023-04-01T06:37:09.128Z,926.09
2023-04-01T06:38:09.883Z,926.06
2023-04-01T06:39:11.346Z,926.07
2023-04-01T06:40:11.241Z,926.05
2023-04-01T06:41:11.504Z,925.94
2023-04-01T06:42:12.324Z,926.01
2023-04-01T06:43:13.370Z,926.13
2023-04-01T06:44:13.528Z,926.1
2023-04-01T06:45:14.523Z,926.13
2023-04-01T06:46:14.967Z,926.18
2023-04-01T06:47:15.448Z,926.18
2023-04-01T06:48:15.918Z,926.19
2023-04-01T06:49:16.416Z,926.21
2023-04-01T06:50:17.125Z,926.25
2023-04-01T06:51:17.631Z,926.21
2023-04-01T06:52:18.162Z,926.25
2023-04-01T06:53:19.181Z,926.21
2023-04-01T06:54:20.074Z,926.33
2023-04-01T06:55:22.405Z,926.32
2023-04-01T06:56:21.117Z,926.25
2023-04-01T06:57:21.660Z,926.2
2023-04-01T06:58:22.622Z,926.17
2023-04-01T06:59:23.325Z,926.21
2023-04-01T07:00:24.016Z,926.22
2023-04-01T07:01:24.576Z,926.09
2023-04-01T07:02:24.943Z,926.06
2023-04-01T07:03:25.695Z,926.15
2023-04-01T07:04:26.603Z,926.11
2023-04-01T07:05:26.952Z,926.1
2023-04-01T07:06:27.276Z,926.09
2023-04-01T07:07:28.188Z,926.04
2023-04-01T07:08:29.119Z,926.03
2023-04-01T07:09:29.869Z,926.13
2023-04-01T07:10:30.362Z,926.23
2023-04-01T07:11:31.076Z,926.3
2023-04-01T07:12:31.837Z,926.22
2023-04-01T07:13:31.958Z,926.19
2023-04-01T07:14:32.941Z,926.2
2023-04-01T07:15:33.787Z,926.32
2023-04-01T07:16:33.848Z,926.22
2023-04-01T07:17:34.739Z,926.19
2023-04-01T07:18:35.434Z,926.27
2023-04-01T07:19:35.809Z,926.29
2023-04-01T07:20:36.353Z,926.26
2023-04-01T07:21:37.219Z,926.3
2023-04-01T07:22:37.923Z,926.29
2023-04-01T07:23:38.641Z,926.29
2023-04-01T07:24:39.590Z,926.28
2023-04-01T07:25:40.146Z,926.39
2023-04-01T07:26:40.388Z,926.28
2023-04-01T07:27:41.278Z,926.4
2023-04-01T07:28:41.495Z,926.36
2023-04-01T07:29:41.973Z,926.32
2023-04-01T07:30:42.986Z,926.32
2023-04-01T07:31:43.906Z,926.23
2023-04-01T07:32:44.030Z,926.35
2023-04-01T07:33:44.155Z,926.34
2023-04-01T07:34:44.392Z,926.35
2023-04-01T07:35:45.318Z,926.38
2023-04-01T07:36:45.961Z,926.25
2023-04-01T07:37:46.459Z,926.32
2023-04-01T07:38:46.773Z,926.37
2023-04-01T07:39:47.670Z,926.29
2023-04-01T07:40:48.419Z,926.49
2023-04-01T07:41:49.148Z,926.4
2023-04-01T07:42:50.116Z,926.44
2023-04-01T07:43:50.509Z,926.36
2023-04-01T07:44:50.839Z,926.45
2023-04-01T07:45:51.939Z,926.37
2023-04-01T07:46:52.691Z,926.35
2023-04-01T07:47:53.467Z,926.3
2023-04-01T07:48:54.153Z,926.33
2023-04-01T07:49:54.844Z,926.39
2023-04-01T07:50:55.368Z,926.41
2023-04-01T07:51:56.269Z,926.32
2023-04-01T07:52:56.992Z,926.44
2023-04-01T07:53:57.660Z,926.28
2023-04-01T07:54:58.438Z,926.49
2023-04-01T07:55:59.175Z,926.3
2023-04-01T07:56:59.509Z,926.39
2023-04-01T07:58:00.441Z,926.35
2023-04-01T07:59:01.443Z,926.28
2023-04-01T08:00:02.177Z,926.43
2023-04-01T08:01:02.671Z,926.52
2023-04-01T08:02:03.389Z,926.52
2023-04-01T08:03:04.031Z,926.45
2023-04-01T08:04:04.740Z,926.53
2023-04-01T08:05:05.523Z,926.46
2023-04-01T08:06:05.904Z,926.45
2023-04-01T08:07:06.427Z,926.52
2023-04-01T08:08:07.148Z,926.51
2023-04-01T08:09:08.115Z,926.55
2023-04-01T08:10:08.436Z,926.54
2023-04-01T08:11:08.973Z,926.45
2023-04-01T08:12:09.679Z,926.46
2023-04-01T08:13:10.431Z,926.46
2023-04-01T08:14:11.504Z,926.52
2023-04-01T08:15:12.048Z,926.37
2023-04-01T08:16:12.999Z,926.55
2023-04-01T08:17:14.038Z,926.51
2023-04-01T08:18:14.680Z,926.6
2023-04-01T08:19:15.632Z,926.61
2023-04-01T08:20:15.761Z,926.63
2023-04-01T08:21:16.680Z,926.55
2023-04-01T08:22:17.434Z,926.45
2023-04-01T08:23:18.236Z,926.4
2023-04-01T08:24:19.755Z,926.4
2023-04-01T08:25:19.046Z,926.39
2023-04-01T08:26:20.032Z,926.43
2023-04-01T08:27:20.343Z,926.42
2023-04-01T08:28:20.866Z,926.48
2023-04-01T08:29:21.648Z,926.45
2023-04-01T08:30:22.273Z,926.44
2023-04-01T08:31:23.058Z,926.42
2023-04-01T08:32:24.034Z,926.38
2023-04-01T08:33:24.225Z,926.39
2023-04-01T08:34:25.265Z,926.39
2023-04-01T08:35:25.800Z,926.41
2023-04-01T08:36:26.292Z,926.51
2023-04-01T08:37:26.935Z,926.43
2023-04-01T08:38:27.079Z,926.37
2023-04-01T08:39:27.887Z,926.4
2023-04-01T08:40:28.835Z,926.36
2023-04-01T08:41:29.550Z,926.51
2023-04-01T08:42:29.861Z,926.44
2023-04-01T08:43:30.591Z,926.39
2023-04-01T08:44:31.260Z,926.37
2023-04-01T08:45:32.115Z,926.32
2023-04-01T08:46:32.357Z,926.41
2023-04-01T08:47:33.319Z,926.29
2023-04-01T08:48:33.550Z,926.3
2023-04-01T08:49:34.454Z,926.3
2023-04-01T08:50:35.388Z,926.26
2023-04-01T08:51:36.115Z,926.25
2023-04-01T08:52:36.634Z,926.48
2023-04-01T08:53:37.327Z,926.28
2023-04-01T08:54:37.964Z,926.33
2023-04-01T08:55:38.706Z,926.29
2023-04-01T08:56:39.453Z,926.23
2023-04-01T08:57:40.101Z,926.19
2023-04-01T08:58:40.950Z,926.29
2023-04-01T08:59:41.999Z,926.27
2023-04-01T09:00:42.931Z,926.22
2023-04-01T09:01:43.190Z,926.28
2023-04-01T09:02:43.461Z,926.27
2023-04-01T09:03:44.552Z,926.23
2023-04-01T09:04:45.218Z,926.25
2023-04-01T09:05:45.604Z,926.31
2023-04-01T09:06:46.531Z,926.27
2023-04-01T09:07:47.453Z,926.29
2023-04-01T09:08:48.158Z,926.28
2023-04-01T09:09:48.944Z,926.2
2023-04-01T09:10:49.858Z,926.23
2023-04-01T09:11:51.571Z,926.2
2023-04-01T09:12:50.090Z,926.11
2023-04-01T09:13:50.672Z,926.18
2023-04-01T09:14:51.723Z,926.24
2023-04-01T09:15:52.312Z,926.05
2023-04-01T09:16:53.214Z,926.14
2023-04-01T09:17:54.244Z,926.13
2023-04-01T09:18:54.321Z,926.09
2023-04-01T09:19:54.673Z,926.09
2023-04-01T09:20:55.384Z,926.04
2023-04-01T09:21:55.703Z,926.16
2023-04-01T09:22:56.238Z,926.1
2023-04-01T09:23:56.967Z,926.19
2023-04-01T09:24:58.022Z,926.22
2023-04-01T09:25:59.011Z,926.08
2023-04-01T09:26:59.800Z,926.03
2023-04-01T09:28:00.567Z,926.11
2023-04-01T09:29:01.300Z,926.05
2023-04-01T09:30:02.384Z,926.01
2023-04-01T09:31:02.901Z,926.06
2023-04-01T09:32:03.039Z,926.01
2023-04-01T09:33:03.662Z,925.96
2023-04-01T09:34:04.498Z,925.91
2023-04-01T09:35:04.609Z,925.88
2023-04-01T09:36:05.360Z,925.94
2023-04-01T09:37:05.443Z,925.83
2023-04-01T09:38:05.761Z,925.86
2023-04-01T09:39:05.864Z,925.85
2023-04-01T09:40:06.594Z,925.9
2023-04-01T09:41:07.349Z,925.91
2023-04-01T09:42:07.854Z,925.89
2023-04-01T09:43:08.743Z,925.83
2023-04-01T09:44:09.472Z,925.83
2023-04-01T09:45:09.973Z,925.82
2023-04-01T09:46:10.958Z,925.91
2023-04-01T09:47:11.831Z,925.89
2023-04-01T09:48:12.019Z,925.88
2023-04-01T09:49:13.058Z,925.84
2023-04-01T09:50:13.790Z,925.91
2023-04-01T09:51:14.378Z,925.92
2023-04-01T09:52:15.074Z,925.83
2023-04-01T09:53:15.789Z,925.9
2023-04-01T09:54:15.906Z,925.87
2023-04-01T09:55:16.564Z,925.87
2023-04-01T09:56:16.868Z,925.86
2023-04-01T09:57:17.996Z,925.88
2023-04-01T09:58:18.584Z,925.82
2023-04-01T09:59:19.242Z,925.86
2023-04-01T10:00:20.222Z,925.92
2023-04-01T10:01:21.194Z,925.83
2023-04-01T10:02:21.320Z,925.81
2023-04-01T10:03:22.153Z,925.77
2023-04-01T10:04:22.290Z,925.85
2023-04-01T10:05:22.772Z,925.86
2023-04-01T10:06:23.045Z,925.85
2023-04-01T10:07:23.588Z,925.91
2023-04-01T10:08:24.510Z,925.85
2023-04-01T10:09:25.427Z,925.78
2023-04-01T10:10:25.979Z,925.85
2023-04-01T10:11:26.540Z,925.94
2023-04-01T10:12:27.266Z,925.85
2023-04-01T10:13:28.202Z,925.79
2023-04-01T10:14:28.539Z,925.72
2023-04-01T10:15:29.424Z,925.76
2023-04-01T10:16:29.969Z,925.75
2023-04-01T10:17:31.012Z,925.8
2023-04-01T10:18:31.856Z,925.83
2023-04-01T10:19:32.347Z,925.82
2023-04-01T10:20:32.455Z,925.82
2023-04-01T10:21:33.140Z,925.86
2023-04-01T10:22:34.077Z,925.81
2023-04-01T10:23:34.585Z,925.74
2023-04-01T10:24:34.916Z,925.75
2023-04-01T10:25:35.578Z,925.74
2023-04-01T10:26:35.704Z,925.73
2023-04-01T10:27:36.443Z,925.9
2023-04-01T10:28:37.384Z,925.92
2023-04-01T10:29:38.097Z,925.86
2023-04-01T10:30:39.063Z,925.69
2023-04-01T10:31:39.792Z,925.74
2023-04-01T10:32:39.930Z,925.77
2023-04-01T10:33:40.771Z,925.81
2023-04-01T10:34:41.745Z,925.75
2023-04-01T10:35:42.493Z,925.73
2023-04-01T10:36:43.195Z,925.74
2023-04-01T10:37:43.974Z,925.67
2023-04-01T10:38:44.909Z,925.71
2023-04-01T10:39:45.470Z,925.67
2023-04-01T10:40:46.172Z,925.68
2023-04-01T10:41:46.930Z,925.64
2023-04-01T10:42:47.689Z,925.7
2023-04-01T10:43:48.015Z,925.7
2023-04-01T10:44:48.370Z,925.77
2023-04-01T10:45:48.730Z,925.73
2023-04-01T10:46:48.823Z,925.66
2023-04-01T10:47:49.578Z,925.72
2023-04-01T10:48:50.515Z,925.64
2023-04-01T10:49:51.506Z,925.69
2023-04-01T10:50:52.237Z,925.72
2023-04-01T10:51:52.810Z,925.72
2023-04-01T10:52:53.328Z,925.74
2023-04-01T10:53:53.648Z,925.69
2023-04-01T10:54:54.557Z,925.66
2023-04-01T10:55:55.156Z,925.55
2023-04-01T10:56:55.934Z,925.48
2023-04-01T10:57:56.696Z,925.6
2023-04-01T10:58:57.619Z,925.65
2023-04-01T10:59:57.978Z,925.68
2023-04-01T11:00:58.232Z,925.55
2023-04-01T11:02:08.247Z,925.51
2023-04-01T11:02:59.404Z,925.56
2023-04-01T11:03:59.973Z,925.6
2023-04-01T11:05:00.923Z,925.57
2023-04-01T11:06:01.558Z,925.51
2023-04-01T11:07:02.458Z,925.49
2023-04-01T11:08:06.371Z,925.6
2023-04-01T11:09:04.148Z,925.56
2023-04-01T11:10:04.469Z,925.54
2023-04-01T11:11:04.682Z,925.61
2023-04-01T11:12:05.398Z,925.53
2023-04-01T11:13:06.156Z,925.54
2023-04-01T11:14:06.879Z,925.65
2023-04-01T11:15:07.816Z,925.63
2023-04-01T11:16:07.963Z,925.69
2023-04-01T11:17:08.439Z,925.62
2023-04-01T11:18:09.032Z,925.59
2023-04-01T11:19:09.885Z,925.58
2023-04-01T11:20:10.616Z,925.65
2023-04-01T11:21:11.516Z,925.65
2023-04-01T11:22:11.873Z,925.6
2023-04-01T11:23:12.359Z,925.61
2023-04-01T11:24:12.865Z,925.79
2023-04-01T11:25:13.686Z,925.74
2023-04-01T11:26:14.199Z,925.71
2023-04-01T11:27:14.794Z,925.7
2023-04-01T11:28:15.684Z,925.81
2023-04-01T11:29:15.960Z,925.82
2023-04-01T11:30:16.909Z,925.73
2023-04-01T11:31:17.687Z,925.62
2023-04-01T11:32:17.840Z,925.82
2023-04-01T11:33:20.610Z,925.57
2023-04-01T11:34:18.728Z,925.7
2023-04-01T11:35:19.418Z,925.72
2023-04-01T11:36:19.725Z,925.76
2023-04-01T11:37:20.127Z,925.83
2023-04-01T11:38:20.834Z,925.78
2023-04-01T11:39:21.784Z,925.81
2023-04-01T11:40:22.472Z,925.92
2023-04-01T11:41:23.417Z,925.9
2023-04-01T11:42:24.454Z,925.9
2023-04-01T11:43:32.711Z,925.95
2023-04-01T11:44:25.824Z,925.88
2023-04-01T11:45:26.560Z,925.93
2023-04-01T11:46:27.037Z,925.99
2023-04-01T11:47:27.862Z,925.9
2023-04-01T11:48:28.742Z,925.97
2023-04-01T11:49:29.431Z,926.01
2023-04-01T11:50:30.307Z,926.07
2023-04-01T11:51:30.399Z,925.98
2023-04-01T11:52:30.925Z,925.9
2023-04-01T11:53:31.652Z,926.06
2023-04-01T11:54:32.356Z,926.09
2023-04-01T11:55:33.104Z,926.15
2023-04-01T11:56:33.911Z,926.14
2023-04-01T11:57:35.049Z,926.14
2023-04-01T11:58:35.809Z,926.15
2023-04-01T11:59:36.502Z,926.1
2023-04-01T12:00:36.821Z,926.23
2023-04-01T12:01:37.774Z,926.09
2023-04-01T12:02:38.828Z,926.18
2023-04-01T12:03:39.201Z,926.27
2023-04-01T12:04:39.647Z,926.16
2023-04-01T12:05:39.800Z,926.33
2023-04-01T12:06:40.689Z,926.32
2023-04-01T12:07:40.814Z,926.37
2023-04-01T12:08:41.837Z,926.36
2023-04-01T12:09:42.618Z,926.33
2023-04-01T12:10:43.329Z,926.21
2023-04-01T12:11:44.060Z,926.31
2023-04-01T12:12:50.915Z,926.33
2023-04-01T12:13:45.741Z,926.32
2023-04-01T12:14:45.923Z,926.38
2023-04-01T12:15:46.452Z,926.39
2023-04-01T12:16:46.605Z,926.4
2023-04-01T12:17:46.892Z,926.39
2023-04-01T12:18:47.543Z,926.47
2023-04-01T12:19:47.751Z,926.41
2023-04-01T12:20:48.453Z,926.39
2023-04-01T12:21:49.350Z,926.37
2023-04-01T12:22:49.927Z,926.47
2023-04-01T12:23:50.384Z,926.62
2023-04-01T12:24:50.692Z,926.52
2023-04-01T12:25:51.648Z,926.5
2023-04-01T12:26:52.442Z,926.55
2023-04-01T12:27:53.361Z,926.51
2023-04-01T12:28:53.898Z,926.48
2023-04-01T12:29:54.609Z,926.55
2023-04-01T12:30:55.231Z,926.55
2023-04-01T12:31:56.074Z,926.54
2023-04-01T12:32:56.167Z,926.46
2023-04-01T12:33:57.180Z,926.41
2023-04-01T12:34:57.891Z,926.52
2023-04-01T12:35:58.209Z,926.51
2023-04-01T12:36:58.444Z,926.23
2023-04-01T12:37:59.189Z,926.09
2023-04-01T12:38:59.928Z,926.42
2023-04-01T12:40:00.639Z,926.29